Aeroporto :
LOGIN :

Iscrizione | Disclaimer

   EN    FR    IT 

 










Sommario :    VFR   VFR Marginale   IFR   IFR Intensivo   IFR Molto Intensivo
Visibilità : 
Base nubi : 
>= 8 km
>= 3000ft
5 / 8 km
1000 / 3000 ft
1500m / 5 km
500 / 1000 ft
800 / 1500m
200 / 500 ft
< 800m
< 200 ft
Simboli :   Temporali  Nebbia  Neve Forte  Precipitazioni Forti  Vento > 20 kt
SIGMETs :   Varie  Temporali  Ghiacco  Turbolenza  Onda orograficha  Ceneri Vulcaniche






- Altitudine del aeroporto : 142 ft
- Codice IATA : FLR


LIRQ - Firenze Amerigo Vespucci

ULTIMO METAR :
  • 231850Z 13006KT 9999 SCT030 BKN060 09/07 Q1001 RERA

METARs OBSOLETI :
  • 231820Z 14007KT 8000 -RA SCT020 BKN050 10/07 Q1000 RERA
  • 231750Z 14008KT 8000 RA SCT020 BKN050 09/07 Q1000
  • 231720Z 14008KT 110V180 8000 RA SCT030 BKN070 10/07 Q1000
  • 231650Z 11005KT 080V150 9999 SCT020 BKN055 09/08 Q1000
  • 231620Z 09006KT 9999 SCT020 SCT060 09/09 Q0999 RERA
  • 231550Z 10003KT 040V130 8000 RA FEW020 OVC035 09/08 Q0999
  • 231520Z 30005KT 260V320 8000 RA SCT020 BKN030 10/09 Q0999
  • 231450Z 30003KT 8000 RA SCT025 BKN050 10/09 Q0999
  • 231420Z 30008KT 260V330 7000 RA FEW010 SCT030 BKN050 10/09 Q0999

TAF TAF LIRQ
Valido dal 23 a 18 ore il 24 a 18 ore UTC


231700Z 2318/2418 22010KT 9999 SCT025
TEMPO 2318/2402 SHRA
TEMPO 2412/2416 TSRA
BECMG 2415/2417 VRB05KT



MetMap, La meteo Aeronautica in un colpo d'occhio ! - Copyright ORBIFLY Dicembre 2007 - Disclaimer

ORBIFLY MET'MAP TEAM :

Programmazione e sviluppo : Alexandra Zaïnal
Concezione : Baudouin d'Aumeries
Supporto tecnico e logistico : Manuel Goepfert
Aiuto : Marc-Olivier Méhu
Aiuto per la traduzione : Arnaldo La Scala




FONTI E CREDITI :

   NOAA